| time (UTC) | temp F | wind direction | speed knots | gust knots | rain 1hr in | rain 24hr in | rain mn in | humidity % | barometer mb |
| 20260505182016 | 34 | 41 | 6.1 | 9.6 | 0.01 | 0.23 | 0.12 | 93 | 1014.3 |
| 20260505181533 | 34 | 41 | 3.5 | 7.0 | 0.01 | 0.23 | 0.12 | 93 | 1014.5 |
| 20260505181021 | 34 | 90 | 3.5 | 6.1 | 0.01 | 0.23 | 0.12 | 93 | 1014.5 |
| 20260505180514 | 34 | 84 | 3.5 | 7.8 | 0.01 | 0.23 | 0.12 | 93 | 1014.6 |
| 20260505180037 | 34 | 82 | 5.2 | 8.7 | 0.01 | 0.23 | 0.12 | 93 | 1014.7 |
| 20260505175515 | 34 | 58 | 5.2 | 8.7 | 0.00 | 0.22 | 0.11 | 93 | 1014.8 |
| 20260505175020 | 34 | 75 | 3.5 | 9.6 | 0.00 | 0.22 | 0.11 | 93 | 1014.8 |
| 20260505174540 | 34 | 63 | 5.2 | 9.6 | 0.00 | 0.22 | 0.11 | 93 | 1014.8 |
| 20260505174016 | 34 | 58 | 5.2 | 9.6 | 0.00 | 0.22 | 0.11 | 93 | 1014.9 |
| 20260505173513 | 34 | 79 | 5.2 | 8.7 | 0.00 | 0.22 | 0.11 | 93 | 1014.8 |
| 20260505173054 | 34 | 78 | 5.2 | 8.7 | 0.00 | 0.22 | 0.11 | 93 | 1014.9 |
| 20260505172513 | 34 | 82 | 5.2 | 8.7 | 0.00 | 0.22 | 0.11 | 94 | 1014.9 |
| 20260505172025 | 34 | 90 | 5.2 | 8.7 | 0.01 | 0.22 | 0.11 | 94 | 1014.9 |
| 20260505171539 | 34 | 89 | 3.5 | 8.7 | 0.01 | 0.22 | 0.11 | 94 | 1015.0 |
| 20260505171016 | 34 | 77 | 5.2 | 8.7 | 0.01 | 0.22 | 0.11 | 94 | 1014.9 |
| 20260505170519 | 34 | 79 | 5.2 | 8.7 | 0.01 | 0.22 | 0.11 | 94 | 1014.8 |
| 20260505170034 | 33 | 73 | 5.2 | 7.8 | 0.01 | 0.22 | 0.11 | 94 | 1015.0 |
| 20260505165514 | 34 | 52 | 4.3 | 7.0 | 0.01 | 0.22 | 0.11 | 94 | 1015.0 |
| 20260505165014 | 34 | 44 | 3.5 | 7.0 | 0.01 | 0.22 | 0.11 | 94 | 1015.1 |
| 20260505164537 | 34 | 54 | 4.3 | 6.1 | 0.01 | 0.22 | 0.11 | 94 | 1015.2 |
| 20260505164013 | 33 | 49 | 2.6 | 7.0 | 0.01 | 0.22 | 0.11 | 94 | 1015.3 |
| 20260505163516 | 33 | 40 | 2.6 | 7.0 | 0.01 | 0.22 | 0.11 | 94 | 1015.4 |
| 20260505163035 | 34 | 2 | 3.5 | 7.8 | 0.01 | 0.22 | 0.11 | 94 | 1015.4 |
| 20260505162514 | 34 | 354 | 3.5 | 7.8 | 0.01 | 0.22 | 0.11 | 94 | 1015.4 |
| 20260505162016 | 34 | 357 | 1.7 | 7.0 | 0.00 | 0.21 | 0.10 | 94 | 1015.3 |
| 20260505161532 | 34 | 359 | 3.5 | 7.0 | 0.00 | 0.21 | 0.10 | 94 | 1015.3 |
| 20260505161013 | 33 | 3 | 3.5 | 7.8 | 0.01 | 0.21 | 0.10 | 94 | 1015.4 |
| 20260505160514 | 33 | 349 | 4.3 | 7.8 | 0.01 | 0.21 | 0.10 | 94 | 1015.4 |
| 20260505153034 | 33 | 17 | 6.1 | 8.7 | 0.01 | 0.21 | 0.10 | 94 | 1015.4 |
| 20260505152516 | 33 | 11 | 5.2 | 10.4 | 0.01 | 0.21 | 0.10 | 94 | 1015.5 |
| 20260505152020 | 33 | 6 | 5.2 | 11.3 | 0.01 | 0.21 | 0.10 | 93 | 1015.6 |
| 20260505151533 | 33 | 10 | 6.1 | 11.3 | 0.00 | 0.20 | 0.09 | 93 | 1015.6 |
| 20260505151015 | 33 | 8 | 6.1 | 11.3 | 0.01 | 0.20 | 0.09 | 93 | 1015.5 |
| 20260505150522 | 33 | 6 | 7.0 | 10.4 | 0.01 | 0.20 | 0.09 | 94 | 1015.5 |
| 20260505140522 | 33 | 2 | 5.2 | 10.4 | 0.00 | 0.19 | 0.08 | 93 | 1015.8 |
| 20260505125013 | 33 | 355 | 8.7 | 19.1 | 0.02 | 0.19 | 0.08 | 93 | 1014.4 |
| 20260505124533 | 33 | 10 | 13.0 | 19.1 | 0.02 | 0.19 | 0.08 | 93 | 1014.2 |
| 20260505124016 | 33 | 349 | 9.6 | 16.5 | 0.02 | 0.19 | 0.08 | 93 | 1014.1 |
| 20260505123516 | 33 | 351 | 8.7 | 16.5 | 0.03 | 0.19 | 0.08 | 93 | 1014.1 |
| 20260505123046 | 34 | 325 | 10.4 | 17.4 | 0.03 | 0.18 | 0.07 | 93 | 1014.0 |
| 20260505122518 | 34 | 34 | 12.2 | 17.4 | 0.04 | 0.18 | 0.07 | 93 | 1014.0 |
| 20260505122014 | 34 | 344 | 11.3 | 16.5 | 0.05 | 0.18 | 0.07 | 93 | 1013.9 |
| 20260505121535 | 34 | 355 | 11.3 | 16.5 | 0.05 | 0.18 | 0.07 | 93 | 1014.0 |
| 20260505121017 | 34 | 328 | 11.3 | 16.5 | 0.05 | 0.18 | 0.07 | 93 | 1014.0 |
| 20260505120515 | 35 | 8 | 10.4 | 16.5 | 0.06 | 0.18 | 0.07 | 92 | 1014.0 |
| 20260505120046 | 35 | 6 | 10.4 | 16.5 | 0.05 | 0.17 | 0.06 | 92 | 1014.0 |
| 20260505115513 | 35 | 4 | 11.3 | 17.4 | 0.05 | 0.17 | 0.06 | 93 | 1014.0 |
| 20260505115014 | 36 | 5 | 8.7 | 17.4 | 0.05 | 0.17 | 0.06 | 92 | 1013.9 |
| 20260505114545 | 36 | 349 | 11.3 | 17.4 | 0.05 | 0.17 | 0.06 | 93 | 1013.8 |
| 20260505114016 | 36 | 326 | 9.6 | 17.4 | 0.05 | 0.17 | 0.06 | 92 | 1013.8 |
| 20260505113513 | 36 | 345 | 11.3 | 18.2 | 0.04 | 0.16 | 0.05 | 92 | 1013.8 |
| 20260505113031 | 37 | 23 | 12.2 | 18.2 | 0.03 | 0.15 | 0.04 | 92 | 1013.7 |
| 20260505112515 | 37 | 347 | 9.6 | 16.5 | 0.02 | 0.14 | 0.03 | 92 | 1013.6 |
| 20260505112014 | 38 | 354 | 9.6 | 14.8 | 0.01 | 0.13 | 0.02 | 92 | 1013.6 |
| 20260505111533 | 38 | 12 | 7.8 | 13.9 | 0.01 | 0.13 | 0.02 | 92 | 1013.6 |
| 20260505111014 | 38 | 22 | 7.8 | 13.9 | 0.01 | 0.13 | 0.02 | 92 | 1013.5 |
| 20260505110515 | 38 | 352 | 9.6 | 14.8 | 0.00 | 0.12 | 0.01 | 92 | 1013.4 |
| 20260505102017 | 43 | 344 | 3.5 | 11.3 | 0.00 | 0.12 | 0.01 | 92 | 1012.6 |
| 20260505101538 | 43 | 8 | 1.7 | 3.5 | 0.00 | 0.12 | 0.01 | 91 | 1012.1 |
| 20260505101015 | 43 | 344 | 0.9 | 4.3 | 0.00 | 0.12 | 0.01 | 91 | 1012.3 |
| 20260505100516 | 43 | 350 | 0.9 | 6.1 | 0.00 | 0.12 | 0.01 | 91 | 1012.1 |
| 20260505100034 | 43 | 340 | 0.9 | 7.0 | 0.00 | 0.12 | 0.01 | 91 | 1012.2 |
| 20260505095514 | 43 | 360 | 3.5 | 8.7 | 0.00 | 0.12 | 0.01 | 90 | 1012.2 |
| 20260505095017 | 43 | 343 | 5.2 | 12.2 | 0.00 | 0.12 | 0.01 | 90 | 1012.3 |
| 20260505094534 | 43 | 354 | 4.3 | 12.2 | 0.00 | 0.12 | 0.01 | 90 | 1012.3 |
| 20260505094015 | 43 | 350 | 6.1 | 11.3 | 0.00 | 0.12 | 0.01 | 89 | 1012.2 |
| 20260505093514 | 43 | 44 | 7.0 | 9.6 | 0.00 | 0.12 | 0.01 | 89 | 1011.8 |
| 20260505093040 | 43 | 51 | 6.1 | 9.6 | 0.00 | 0.12 | 0.01 | 89 | 1011.9 |
| 20260505092515 | 43 | 73 | 6.1 | 9.6 | 0.00 | 0.12 | 0.01 | 89 | 1011.7 |
| 20260505092015 | 43 | 91 | 3.5 | 6.1 | 0.00 | 0.12 | 0.01 | 89 | 1012.0 |
| 20260505091540 | 43 | 101 | 2.6 | 6.1 | 0.00 | 0.12 | 0.01 | 88 | 1012.2 |
| 20260505091016 | 43 | 83 | 3.5 | 6.1 | 0.00 | 0.12 | 0.01 | 88 | 1012.1 |
| 20260505090514 | 43 | 113 | 3.5 | 6.1 | 0.00 | 0.12 | 0.01 | 88 | 1012.1 |
| 20260505090045 | 43 | 100 | 3.5 | 6.1 | 0.00 | 0.12 | 0.01 | 88 | 1012.1 |
| 20260505085515 | 43 | 82 | 3.5 | 6.1 | 0.00 | 0.12 | 0.01 | 87 | 1012.1 |
| 20260505085016 | 43 | 99 | 2.6 | 6.1 | 0.00 | 0.12 | 0.01 | 87 | 1012.0 |
| 20260505084532 | 43 | 98 | 3.5 | 7.0 | 0.00 | 0.12 | 0.01 | 87 | 1012.0 |
| 20260505084014 | 43 | 117 | 3.5 | 7.8 | 0.00 | 0.12 | 0.01 | 87 | 1011.9 |
| 20260505083517 | 43 | 105 | 4.3 | 10.4 | 0.00 | 0.12 | 0.01 | 87 | 1011.9 |
| 20260505083034 | 43 | 145 | 7.0 | 10.4 | 0.00 | 0.12 | 0.01 | 87 | 1011.8 |
| 20260505082517 | 43 | 159 | 5.2 | 7.8 | 0.00 | 0.12 | 0.01 | 88 | 1012.0 |
| 20260505082017 | 43 | 132 | 3.5 | 7.0 | 0.00 | 0.12 | 0.01 | 88 | 1012.1 |
| 20260505081542 | 43 | 96 | 2.6 | 5.2 | 0.00 | 0.12 | 0.01 | 88 | 1012.4 |
| 20260505081015 | 43 | 114 | 1.7 | 5.2 | 0.00 | 0.12 | 0.01 | 89 | 1012.6 |
| 20260505080516 | 43 | 152 | 2.6 | 5.2 | 0.00 | 0.12 | 0.01 | 89 | 1012.5 |
| 20260505080046 | 43 | 132 | 2.6 | 5.2 | 0.00 | 0.12 | 0.01 | 89 | 1012.7 |
| 20260505075516 | 43 | 116 | 2.6 | 4.3 | 0.00 | 0.12 | 0.01 | 89 | 1012.6 |
| 20260505075016 | 43 | 119 | 1.7 | 4.3 | 0.00 | 0.12 | 0.01 | 89 | 1012.7 |
| 20260505074535 | 43 | 127 | 1.7 | 5.2 | 0.00 | 0.12 | 0.01 | 90 | 1012.8 |
| 20260505074015 | 43 | 132 | 2.6 | 7.8 | 0.01 | 0.12 | 0.01 | 90 | 1012.9 |
| 20260505073514 | 43 | 139 | 3.5 | 7.8 | 0.01 | 0.12 | 0.01 | 90 | 1013.0 |
| 20260505073045 | 43 | 174 | 4.3 | 10.4 | 0.01 | 0.12 | 0.01 | 90 | 1013.1 |
| 20260505072512 | 43 | 156 | 7.8 | 10.4 | 0.01 | 0.12 | 0.01 | 90 | 1013.2 |
| 20260505072016 | 43 | 150 | 5.2 | 9.6 | 0.01 | 0.12 | 0.01 | 91 | 1013.1 |
| 20260505071534 | 43 | 146 | 2.6 | 7.0 | 0.01 | 0.12 | 0.01 | 91 | 1013.4 |
| 20260505071017 | 43 | 135 | 4.3 | 8.7 | 0.01 | 0.12 | 0.01 | 91 | 1013.3 |
| 20260505070517 | 43 | 183 | 5.2 | 8.7 | 0.01 | 0.12 | 0.01 | 91 | 1013.4 |
| 20260505070034 | 43 | 167 | 6.1 | 8.7 | 0.01 | 0.12 | 0.01 | 91 | 1013.5 |
| 20260505065515 | 43 | 159 | 6.1 | 8.7 | 0.01 | 0.12 | 0.01 | 91 | 1013.5 |
| 20260505065013 | 43 | 158 | 5.2 | 7.8 | 0.01 | 0.12 | 0.01 | 91 | 1013.6 |
| 20260505064531 | 43 | 198 | 3.5 | 6.1 | 0.01 | 0.12 | 0.01 | 91 | 1013.9 |
| 20260505064016 | 43 | 206 | 3.5 | 6.1 | 0.00 | 0.11 | 0.00 | 91 | 1013.9 |
| 20260505063520 | 43 | 185 | 0.9 | 2.6 | 0.00 | 0.11 | 0.00 | 91 | 1013.8 |
| 20260505063036 | 43 | 185 | 0.0 | 1.7 | 0.00 | 0.11 | 0.00 | 91 | 1013.8 |
| 20260505062515 | 43 | 0 | 0.0 | 1.7 | 0.00 | 0.11 | 0.00 | 91 | 1013.8 |
| 20260505062014 | 43 | 185 | 0.0 | 2.6 | 0.00 | 0.11 | 0.00 | 91 | 1013.8 |
| 20260505061535 | 43 | 0 | 0.0 | 3.5 | 0.01 | 0.11 | 0.00 | 91 | 1013.8 |
| 20260505061015 | 43 | 185 | 1.7 | 3.5 | 0.01 | 0.11 | 0.00 | 91 | 1013.7 |
| 20260505060514 | 43 | 185 | 0.9 | 3.5 | 0.02 | 0.11 | 0.00 | 91 | 1013.8 |
| 20260505060036 | 43 | 185 | 0.9 | 3.5 | 0.02 | 0.11 | 0.00 | 91 | 1013.7 |
| 20260505055518 | 43 | 0 | 0.9 | 3.5 | 0.03 | 0.11 | 0.11 | 91 | 1013.8 |
| 20260505055017 | 43 | 185 | 1.7 | 3.5 | 0.03 | 0.11 | 0.11 | 91 | 1013.7 |
| 20260505054535 | 43 | 207 | 1.7 | 3.5 | 0.04 | 0.11 | 0.11 | 91 | 1013.9 |
| 20260505054017 | 43 | 212 | 1.7 | 3.5 | 0.05 | 0.11 | 0.11 | 91 | 1013.7 |
| 20260505053513 | 43 | 186 | 0.9 | 3.5 | 0.05 | 0.11 | 0.11 | 91 | 1013.6 |
| 20260505053034 | 43 | 121 | 1.7 | 4.3 | 0.05 | 0.11 | 0.11 | 91 | 1013.5 |
| 20260505052520 | 43 | 125 | 1.7 | 4.3 | 0.06 | 0.11 | 0.11 | 91 | 1013.6 |
| 20260505052018 | 43 | 124 | 1.7 | 3.5 | 0.06 | 0.11 | 0.11 | 91 | 1013.6 |
| 20260505051536 | 43 | 43 | 0.0 | 3.5 | 0.05 | 0.10 | 0.10 | 90 | 1013.9 |
| 20260505051015 | 43 | 351 | 1.7 | 5.2 | 0.05 | 0.10 | 0.10 | 90 | 1014.2 |
| 20260505050516 | 43 | 342 | 2.6 | 7.8 | 0.04 | 0.09 | 0.09 | 90 | 1014.4 |
| 20260505050109 | 43 | 345 | 3.5 | 7.8 | 0.04 | 0.09 | 0.09 | 90 | 1014.4 |
| 20260505041548 | 45 | 356 | 0.9 | 3.5 | 0.05 | 0.05 | 0.05 | 87 | 1014.2 |
| 20260505041014 | 45 | 356 | 1.7 | 3.5 | 0.05 | 0.05 | 0.05 | 87 | 1014.1 |
| 20260505040516 | 45 | 306 | 0.9 | 2.6 | 0.05 | 0.05 | 0.05 | 86 | 1014.0 |
| 20260505040031 | 45 | 0 | 0.0 | 1.7 | 0.05 | 0.05 | 0.05 | 85 | 1014.0 |
| 20260505035515 | 45 | 0 | 0.0 | 1.7 | 0.05 | 0.05 | 0.05 | 85 | 1013.8 |
| 20260505035014 | 45 | 254 | 0.9 | 1.7 | 0.04 | 0.04 | 0.04 | 84 | 1013.8 |
| 20260505034532 | 45 | 254 | 0.0 | 1.7 | 0.04 | 0.04 | 0.04 | 84 | 1013.9 |
| 20260505034015 | 46 | 0 | 0.0 | 5.2 | 0.03 | 0.03 | 0.03 | 84 | 1013.8 |
| 20260505033513 | 46 | 254 | 0.9 | 5.2 | 0.02 | 0.02 | 0.02 | 83 | 1014.0 |
| 20260505033037 | 46 | 274 | 2.6 | 5.2 | 0.02 | 0.02 | 0.02 | 82 | 1014.0 |
| 20260505032516 | 47 | 269 | 1.7 | 4.3 | 0.01 | 0.01 | 0.01 | 81 | 1013.8 |
| 20260505032014 | 47 | 240 | 0.9 | 3.5 | 0.01 | 0.01 | 0.01 | 80 | 1013.8 |
| 20260505031540 | 47 | 243 | 1.7 | 3.5 | 0.00 | 0.00 | 0.00 | 79 | 1013.7 |
| 20260505031013 | 47 | 205 | 0.9 | 3.5 | 0.00 | 0.00 | 0.00 | 78 | 1013.8 |
| 20260505030513 | 47 | 205 | 1.7 | 3.5 | 0.00 | 0.00 | 0.00 | 77 | 1013.6 |
| 20260505030037 | 47 | 214 | 1.7 | 3.5 | 0.00 | 0.00 | 0.00 | 77 | 1013.5 |
| 20260505025517 | 47 | 224 | 1.7 | 3.5 | 0.00 | 0.00 | 0.00 | 77 | 1013.4 |
| 20260505025018 | 47 | 172 | 0.9 | 3.5 | 0.00 | 0.00 | 0.00 | 76 | 1013.4 |
| 20260505024531 | 47 | 172 | 1.7 | 3.5 | 0.00 | 0.00 | 0.00 | 76 | 1013.2 |
| 20260505024015 | 47 | 238 | 0.9 | 4.3 | 0.00 | 0.00 | 0.00 | 75 | 1013.1 |
| 20260505023516 | 47 | 238 | 1.7 | 4.3 | 0.00 | 0.00 | 0.00 | 74 | 1013.1 |
| 20260505023039 | 48 | 231 | 1.7 | 4.3 | 0.00 | 0.00 | 0.00 | 73 | 1013.0 |
| 20260505022515 | 48 | 269 | 0.9 | 3.5 | 0.00 | 0.00 | 0.00 | 71 | 1012.9 |
| 20260505022016 | 48 | 0 | 0.0 | 3.5 | 0.00 | 0.00 | 0.00 | 70 | 1012.8 |
| 20260505021534 | 49 | 269 | 1.7 | 3.5 | 0.00 | 0.00 | 0.00 | 68 | 1012.9 |
| 20260505021013 | 49 | 274 | 0.9 | 2.6 | 0.00 | 0.00 | 0.00 | 69 | 1012.8 |
| 20260505020515 | 49 | 311 | 0.0 | 2.6 | 0.00 | 0.00 | 0.00 | 67 | 1012.8 |
| 20260505020036 | 49 | 311 | 0.9 | 2.6 | 0.00 | 0.00 | 0.00 | 66 | 1012.9 |
| 20260505015517 | 49 | 20 | 0.0 | 2.6 | 0.00 | 0.00 | 0.00 | 68 | 1013.0 |
| 20260505015014 | 49 | 23 | 0.9 | 2.6 | 0.00 | 0.00 | 0.00 | 66 | 1012.9 |
| 20260505014549 | 49 | 20 | 0.9 | 2.6 | 0.00 | 0.00 | 0.00 | 65 | 1012.9 |
| 20260505014013 | 50 | 0 | 0.0 | 4.3 | 0.00 | 0.00 | 0.00 | 65 | 1012.5 |
| 20260505013513 | 50 | 0 | 0.0 | 6.1 | 0.00 | 0.00 | 0.00 | 66 | 1012.3 |
| 20260505013036 | 50 | 357 | 1.7 | 7.0 | 0.00 | 0.00 | 0.00 | 65 | 1012.6 |
| 20260505012515 | 51 | 347 | 3.5 | 7.0 | 0.00 | 0.00 | 0.00 | 64 | 1012.8 |
| 20260505012013 | 51 | 354 | 3.5 | 7.0 | 0.00 | 0.00 | 0.00 | 62 | 1012.7 |
| 20260505011533 | 51 | 28 | 1.7 | 7.8 | 0.00 | 0.00 | 0.00 | 59 | 1012.7 |
| 20260505011019 | 51 | 11 | 3.5 | 11.3 | 0.00 | 0.00 | 0.00 | 58 | 1012.8 |
| 20260505010515 | 52 | 351 | 5.2 | 11.3 | 0.00 | 0.00 | 0.00 | 58 | 1012.6 |
| 20260505010036 | 52 | 357 | 3.5 | 17.4 | 0.00 | 0.00 | 0.00 | 57 | 1012.7 |
| 20260505005514 | 53 | 352 | 10.4 | 17.4 | 0.00 | 0.00 | 0.00 | 54 | 1012.6 |
| 20260505005014 | 54 | 347 | 8.7 | 13.9 | 0.00 | 0.00 | 0.00 | 50 | 1012.4 |
| 20260505004536 | 54 | 355 | 7.8 | 14.8 | 0.00 | 0.00 | 0.00 | 47 | 1012.3 |
| 20260505004013 | 55 | 353 | 7.8 | 14.8 | 0.00 | 0.00 | 0.00 | 45 | 1012.2 |
| 20260505003514 | 55 | 12 | 4.3 | 13.9 | 0.00 | 0.00 | 0.00 | 44 | 1012.2 |
| 20260505003033 | 55 | 269 | 1.7 | 6.1 | 0.00 | 0.00 | 0.00 | 42 | 1012.2 |
| 20260505002516 | 55 | 347 | 1.7 | 6.1 | 0.00 | 0.00 | 0.00 | 42 | 1012.2 |
| 20260505002014 | 55 | 229 | 2.6 | 5.2 | 0.00 | 0.00 | 0.00 | 42 | 1012.1 |
| 20260505001534 | 55 | 103 | 1.7 | 11.3 | 0.00 | 0.00 | 0.00 | 42 | 1012.0 |
| 20260505001013 | 55 | 98 | 4.3 | 11.3 | 0.00 | 0.00 | 0.00 | 42 | 1011.9 |
| 20260505000516 | 56 | 133 | 6.1 | 11.3 | 0.00 | 0.00 | 0.00 | 41 | 1011.8 |
| 20260505000035 | 56 | 127 | 5.2 | 14.8 | 0.00 | 0.00 | 0.00 | 39 | 1011.7 |
| 20260504235515 | 56 | 86 | 6.1 | 14.8 | 0.00 | 0.00 | 0.00 | 39 | 1011.8 |
| 20260504235015 | 57 | 27 | 7.8 | 14.8 | 0.00 | 0.00 | 0.00 | 38 | 1011.6 |
| 20260504234538 | 57 | 6 | 6.1 | 16.5 | 0.00 | 0.00 | 0.00 | 37 | 1011.6 |
| 20260504234015 | 57 | 90 | 5.2 | 16.5 | 0.00 | 0.00 | 0.00 | 37 | 1011.6 |
| 20260504233515 | 58 | 37 | 8.7 | 15.6 | 0.00 | 0.00 | 0.00 | 33 | 1011.5 |
| 20260504233034 | 59 | 38 | 6.1 | 13.0 | 0.00 | 0.00 | 0.00 | 33 | 1011.5 |
| 20260504232516 | 59 | 2 | 8.7 | 13.0 | 0.00 | 0.00 | 0.00 | 33 | 1011.5 |
| 20260504232016 | 59 | 49 | 7.8 | 16.5 | 0.00 | 0.00 | 0.00 | 32 | 1011.3 |
| 20260504231536 | 59 | 51 | 8.7 | 18.2 | 0.00 | 0.00 | 0.00 | 33 | 1011.5 |
| 20260504231015 | 59 | 7 | 8.7 | 18.2 | 0.00 | 0.00 | 0.00 | 31 | 1011.1 |
| 20260504230515 | 60 | 45 | 11.3 | 19.1 | 0.00 | 0.00 | 0.00 | 31 | 1011.1 |
| 20260504230034 | 60 | 41 | 9.6 | 19.1 | 0.00 | 0.00 | 0.00 | 31 | 1010.5 |
| 20260504225516 | 61 | 8 | 10.4 | 19.1 | 0.00 | 0.00 | 0.00 | 30 | 1010.4 |
| 20260504225013 | 63 | 14 | 8.7 | 16.5 | 0.00 | 0.00 | 0.00 | 27 | 1010.3 |
| 20260504224531 | 63 | 352 | 2.6 | 8.7 | 0.00 | 0.00 | 0.00 | 26 | 1010.1 |
| 20260504224016 | 63 | 8 | 6.1 | 8.7 | 0.00 | 0.00 | 0.00 | 26 | 1010.1 |
| 20260504223514 | 63 | 14 | 3.5 | 7.0 | 0.00 | 0.00 | 0.00 | 26 | 1009.9 |
| 20260504223042 | 63 | 59 | 3.5 | 6.1 | 0.00 | 0.00 | 0.00 | 26 | 1009.9 |
| 20260504222518 | 63 | 59 | 4.3 | 6.1 | 0.00 | 0.00 | 0.00 | 26 | 1010.0 |
| 20260504222019 | 63 | 349 | 1.7 | 8.7 | 0.00 | 0.00 | 0.00 | 26 | 1010.0 |
| 20260504221536 | 63 | 74 | 5.2 | 9.6 | 0.00 | 0.00 | 0.00 | 25 | 1010.0 |
| 20260504221015 | 63 | 4 | 5.2 | 9.6 | 0.00 | 0.00 | 0.00 | 26 | 1010.0 |
| 20260504220515 | 63 | 1 | 5.2 | 9.6 | 0.00 | 0.00 | 0.00 | 25 | 1010.0 |
| 20260504220031 | 63 | 360 | 3.5 | 8.7 | 0.00 | 0.00 | 0.00 | 27 | 1010.0 |
| 20260504215514 | 63 | 352 | 5.2 | 8.7 | 0.00 | 0.00 | 0.00 | 26 | 1010.1 |
| 20260504215017 | 63 | 17 | 3.5 | 18.2 | 0.00 | 0.00 | 0.00 | 28 | 1010.1 |
| 20260504214534 | 63 | 89 | 1.7 | 18.2 | 0.00 | 0.00 | 0.00 | 26 | 1010.2 |
| 20260504214014 | 63 | 296 | 8.7 | 18.2 | 0.00 | 0.00 | 0.00 | 25 | 1010.3 |
| 20260504213514 | 63 | 1 | 5.2 | 10.4 | 0.00 | 0.00 | 0.00 | 26 | 1010.3 |
| 20260504213052 | 63 | 343 | 2.6 | 10.4 | 0.00 | 0.00 | 0.00 | 26 | 1010.5 |
| 20260504212520 | 63 | 8 | 5.2 | 13.9 | 0.00 | 0.00 | 0.00 | 26 | 1010.5 |
| 20260504212015 | 63 | 2 | 8.7 | 13.9 | 0.00 | 0.00 | 0.00 | 26 | 1010.4 |
| 20260504211537 | 63 | 39 | 5.2 | 13.9 | 0.00 | 0.00 | 0.00 | 26 | 1010.5 |
| 20260504211016 | 63 | 23 | 7.8 | 13.9 | 0.00 | 0.00 | 0.00 | 26 | 1010.4 |
| 20260504210513 | 64 | 351 | 10.4 | 15.6 | 0.00 | 0.00 | 0.00 | 26 | 1010.5 |
| 20260504210034 | 63 | 21 | 8.7 | 15.6 | 0.00 | 0.00 | 0.00 | 27 | 1010.6 |
| 20260504205513 | 63 | 10 | 8.7 | 13.0 | 0.00 | 0.00 | 0.00 | 26 | 1010.7 |
| 20260504205014 | 63 | 1 | 6.1 | 19.1 | 0.00 | 0.00 | 0.00 | 26 | 1010.5 |
| 20260504204534 | 63 | 34 | 10.4 | 20.9 | 0.00 | 0.00 | 0.00 | 26 | 1010.7 |
| 20260504204013 | 63 | 3 | 11.3 | 20.9 | 0.00 | 0.00 | 0.00 | 26 | 1010.6 |
| 20260504203514 | 65 | 4 | 11.3 | 20.9 | 0.00 | 0.00 | 0.00 | 25 | 1010.5 |
| 20260504203035 | 65 | 359 | 9.6 | 17.4 | 0.00 | 0.00 | 0.00 | 24 | 1010.4 |
| 20260504202516 | 65 | 360 | 12.2 | 18.2 | 0.00 | 0.00 | 0.00 | 24 | 1010.6 |
| 20260504202014 | 65 | 6 | 13.0 | 19.1 | 0.00 | 0.00 | 0.00 | 25 | 1010.6 |
| 20260504201534 | 65 | 21 | 11.3 | 19.1 | 0.00 | 0.00 | 0.00 | 25 | 1010.8 |
| 20260504201018 | 65 | 51 | 9.6 | 18.2 | 0.00 | 0.00 | 0.00 | 25 | 1010.8 |
| 20260504200516 | 65 | 8 | 11.3 | 20.9 | 0.00 | 0.00 | 0.00 | 25 | 1010.9 |
| 20260504200034 | 65 | 1 | 8.7 | 20.9 | 0.00 | 0.00 | 0.00 | 26 | 1010.8 |
| 20260504195514 | 65 | 356 | 12.2 | 20.9 | 0.00 | 0.00 | 0.00 | 25 | 1010.8 |
| 20260504195016 | 65 | 341 | 9.6 | 18.2 | 0.00 | 0.00 | 0.00 | 26 | 1010.9 |
| 20260504194542 | 64 | 29 | 7.8 | 17.4 | 0.00 | 0.00 | 0.00 | 25 | 1010.8 |
| 20260504194013 | 64 | 352 | 10.4 | 17.4 | 0.00 | 0.00 | 0.00 | 24 | 1010.9 |
| 20260504193517 | 64 | 32 | 8.7 | 17.4 | 0.00 | 0.00 | 0.00 | 25 | 1010.8 |
| 20260504193037 | 63 | 15 | 11.3 | 21.7 | 0.00 | 0.00 | 0.00 | 24 | 1010.8 |
| 20260504192516 | 63 | 355 | 11.3 | 23.5 | 0.00 | 0.00 | 0.00 | 25 | 1010.8 |
| 20260504192014 | 64 | 15 | 13.9 | 24.3 | 0.00 | 0.00 | 0.00 | 24 | 1010.8 |
| 20260504191533 | 64 | 347 | 15.6 | 24.3 | 0.00 | 0.00 | 0.00 | 26 | 1010.7 |
| 20260504191017 | 64 | 358 | 12.2 | 21.7 | 0.00 | 0.00 | 0.00 | 25 | 1010.7 |
| 20260504190514 | 64 | 4 | 16.5 | 21.7 | 0.00 | 0.00 | 0.00 | 23 | 1010.5 |
| 20260504190034 | 65 | 7 | 12.2 | 19.1 | 0.00 | 0.00 | 0.00 | 22 | 1010.6 |
| 20260504185520 | 66 | 356 | 12.2 | 22.6 | 0.00 | 0.00 | 0.00 | 22 | 1010.5 |
| 20260504185017 | 67 | 56 | 11.3 | 22.6 | 0.00 | 0.00 | 0.00 | 21 | 1010.4 |
| 20260504184533 | 72 | 4 | 7.0 | 18.2 | 0.00 | 0.00 | 0.00 | 16 | 1010.4 |
| 20260504184015 | 73 | 302 | 4.3 | 12.2 | 0.00 | 0.00 | 0.00 | 15 | 1010.5 |
| 20260504183514 | 73 | 227 | 5.2 | 12.2 | 0.00 | 0.00 | 0.00 | 16 | 1010.6 |
| 20260504183031 | 72 | 295 | 2.6 | 12.2 | 0.00 | 0.00 | 0.00 | 15 | 1010.6 |
| 20260504182514 | 73 | 229 | 7.8 | 12.2 | 0.00 | 0.00 | 0.00 | 16 | 1010.7 |